createdAt,value
2023-05-01T00:03:31.311Z,92523.27
2023-05-01T00:11:54.854Z,92498.61
2023-05-01T00:20:18.057Z,92490.15
2023-05-01T00:28:41.185Z,92476.10
2023-05-01T00:37:04.356Z,92472.19
2023-05-01T00:45:27.480Z,92457.99
2023-05-01T00:53:51.186Z,92418.47
2023-05-01T01:02:15.272Z,92383.13
2023-05-01T01:10:44.321Z,92355.66
2023-05-01T01:19:49.456Z,92311.84
2023-05-01T01:28:31.382Z,92280.94
2023-05-01T01:37:17.331Z,92278.09
2023-05-01T01:45:44.028Z,92245.80
2023-05-01T01:54:09.833Z,92172.10
2023-05-01T02:02:33.162Z,92122.38
2023-05-01T02:11:01.696Z,92090.60
2023-05-01T02:19:26.546Z,92064.02
2023-05-01T02:28:10.744Z,92021.63
2023-05-01T02:36:33.684Z,91994.05
2023-05-01T02:45:04.153Z,92002.58
2023-05-01T02:53:27.104Z,91996.63
2023-05-01T03:01:54.897Z,91958.67
2023-05-01T03:10:18.017Z,91912.50
2023-05-01T03:18:41.082Z,91933.91
2023-05-01T03:27:04.880Z,91927.75
2023-05-01T03:35:28.353Z,91876.31
2023-05-01T03:43:52.291Z,91868.48
2023-05-01T03:52:35.552Z,92034.02
2023-05-01T04:01:01.121Z,92804.24
2023-05-01T04:09:24.370Z,93572.27
2023-05-01T04:17:48.230Z,94201.75
2023-05-01T04:26:11.648Z,94635.33
2023-05-01T04:34:34.756Z,94935.80
2023-05-01T04:42:58.060Z,95179.83
2023-05-01T04:51:21.592Z,95121.81
2023-05-01T04:59:44.760Z,94904.11
2023-05-01T05:08:09.499Z,94808.39
2023-05-01T05:16:53.041Z,94867.56
2023-05-01T05:25:16.577Z,94964.21
2023-05-01T05:33:39.685Z,95110.63
2023-05-01T05:42:03.894Z,95295.81
2023-05-01T05:50:26.950Z,95328.70
2023-05-01T05:58:50.713Z,95327.80
2023-05-01T06:07:13.861Z,95376.11
2023-05-01T06:15:37.761Z,95638.97
2023-05-01T06:24:00.941Z,95992.75
2023-05-01T06:32:28.806Z,96311.52
2023-05-01T06:40:51.874Z,96683.66
2023-05-01T06:49:14.964Z,97012.23
2023-05-01T06:57:38.102Z,97284.41
2023-05-01T07:06:01.191Z,97474.65
2023-05-01T07:14:24.263Z,97432.67
2023-05-01T07:22:47.228Z,97330.56
2023-05-01T07:31:10.657Z,97229.50
2023-05-01T07:39:33.558Z,97169.95
2023-05-01T07:47:57.214Z,97035.73
2023-05-01T07:56:21.486Z,97028.15
2023-05-01T08:04:46.240Z,97236.79
2023-05-01T08:13:09.288Z,97428.29
2023-05-01T08:21:32.345Z,97558.56
2023-05-01T08:29:55.550Z,97734.92
2023-05-01T08:38:18.722Z,97999.27
2023-05-01T08:46:48.223Z,98068.80
2023-05-01T08:55:15.772Z,98109.06
2023-05-01T09:03:38.882Z,98217.39
2023-05-01T09:12:27.571Z,98281.61
2023-05-01T09:20:50.596Z,98391.17
2023-05-01T09:29:58.531Z,98468.48
2023-05-01T09:38:46.143Z,98428.44
2023-05-01T09:47:23.078Z,98435.53
2023-05-01T09:56:02.039Z,98468.73
2023-05-01T10:04:35.302Z,98410.92
2023-05-01T10:13:17.310Z,98407.70
2023-05-01T10:21:41.490Z,98510.00
2023-05-01T10:30:05.358Z,98538.97
2023-05-01T10:38:35.552Z,98576.95
2023-05-01T10:46:58.779Z,98550.45
2023-05-01T10:55:36.426Z,98635.55
2023-05-01T11:04:01.979Z,98731.91
2023-05-01T11:12:46.991Z,98775.07
2023-05-01T11:21:10.420Z,98764.80
2023-05-01T11:29:33.768Z,98729.38
2023-05-01T11:37:56.912Z,98757.66
2023-05-01T11:46:31.677Z,98742.61
2023-05-01T11:54:55.042Z,98683.60
2023-05-01T12:03:18.439Z,98666.66
2023-05-01T12:11:42.611Z,98701.70
2023-05-01T12:20:07.276Z,98698.92
2023-05-01T12:28:31.155Z,98728.45
2023-05-01T12:36:55.140Z,98723.00
2023-05-01T12:45:18.484Z,98720.24
2023-05-01T12:53:44.487Z,98693.58
2023-05-01T13:02:18.046Z,98801.16
2023-05-01T13:10:42.155Z,98873.52
2023-05-01T13:19:06.462Z,98846.67
2023-05-01T13:27:29.834Z,98866.77
2023-05-01T13:35:52.772Z,98888.23
2023-05-01T13:44:18.409Z,98898.86
2023-05-01T13:52:44.683Z,98920.27
2023-05-01T14:01:16.093Z,98919.06
2023-05-01T14:09:41.687Z,98849.52
2023-05-01T14:18:06.944Z,98755.16
2023-05-01T14:26:30.047Z,98604.23
2023-05-01T14:34:53.095Z,98559.02
2023-05-01T14:43:19.341Z,98566.94
2023-05-01T14:51:42.371Z,98549.06
2023-05-01T15:00:06.897Z,98480.80
2023-05-01T15:08:30.584Z,98421.09
2023-05-01T15:16:53.918Z,98389.52
2023-05-01T15:25:17.423Z,98365.50
2023-05-01T15:33:40.531Z,98322.07
2023-05-01T15:42:03.833Z,98291.30
2023-05-01T15:50:27.662Z,98239.61
2023-05-01T15:58:51.153Z,98184.17
2023-05-01T16:07:14.588Z,98124.40
2023-05-01T16:15:38.653Z,98061.86
2023-05-01T16:24:03.009Z,98026.28
2023-05-01T16:32:29.004Z,97941.13
2023-05-01T16:40:52.126Z,97852.48
2023-05-01T16:49:18.107Z,97771.59
2023-05-01T16:57:43.641Z,97683.21
2023-05-01T17:06:09.848Z,97576.00
2023-05-01T17:14:32.909Z,97442.34
2023-05-01T17:22:55.986Z,97304.33
2023-05-01T17:31:21.094Z,97163.80
2023-05-01T17:39:45.824Z,97015.34
2023-05-01T17:48:08.779Z,96854.91
2023-05-01T17:56:31.818Z,96700.99
2023-05-01T18:04:55.426Z,96562.95
2023-05-01T18:13:20.304Z,96418.90
2023-05-01T18:21:43.758Z,96277.24
2023-05-01T18:30:08.175Z,96149.16
2023-05-01T18:38:31.227Z,96048.40
2023-05-01T18:46:54.828Z,95947.77
2023-05-01T18:55:19.562Z,95858.44
2023-05-01T19:03:42.655Z,95755.10
2023-05-01T19:12:06.327Z,95646.31
2023-05-01T19:20:29.389Z,95551.88
2023-05-01T19:28:52.441Z,95453.84
2023-05-01T19:37:15.546Z,95352.75
2023-05-01T19:45:38.711Z,95272.90
2023-05-01T19:54:01.877Z,95241.63
2023-05-01T20:02:27.285Z,95239.42
2023-05-01T20:10:50.344Z,95258.98
2023-05-01T20:19:14.912Z,95305.77
2023-05-01T20:27:41.176Z,95350.70
2023-05-01T20:36:05.524Z,95378.04
2023-05-01T20:44:28.473Z,95378.88
2023-05-01T20:52:52.856Z,95346.74
2023-05-01T21:01:15.874Z,95293.72
2023-05-01T21:09:46.667Z,95203.05
2023-05-01T21:18:14.393Z,95104.55
2023-05-01T21:26:38.519Z,95002.36
2023-05-01T21:35:03.856Z,94919.45
2023-05-01T21:43:26.933Z,94867.17
2023-05-01T21:51:49.881Z,94842.59
2023-05-01T22:00:14.021Z,94839.84
2023-05-01T22:08:37.470Z,94848.37
2023-05-01T22:17:00.392Z,94863.61
2023-05-01T22:25:23.392Z,94879.77
2023-05-01T22:33:47.059Z,94883.35
2023-05-01T22:42:10.068Z,94881.86
2023-05-01T22:50:34.070Z,94878.77
2023-05-01T22:58:57.009Z,94853.88
2023-05-01T23:07:19.969Z,94823.55
2023-05-01T23:15:47.567Z,94789.16
2023-05-01T23:24:18.989Z,94758.66
2023-05-01T23:32:41.981Z,94738.40
2023-05-01T23:41:05.573Z,94713.58
2023-05-01T23:49:28.694Z,94693.08
2023-05-01T23:57:51.712Z,94675.30
